LSPG weather

Kagiswil Airport
Canton of Obwalden, Switzerland

Public forecast

Using degrees Celsius for public forecast. Weather courtesy of forecast.io.

METAR (pilot weather report)

Closest report is Alpnach Air Base, 2.5 nm (4.6 km) NNE. Retrieved 2019/09/18 01:20 UTC (33 minutes ago):

LSMA 180120Z AUTO 04010KT 9999NDV FEW028 OVC032 17/11 Q1020 RMK

TAF (pilot weather forecast)

Forecast is more than 6 hours old.

Closest forecast is Alpnach Air Base, 2.5 nm (4.6 km) NNE. Retrieved 2019/09/17 17:00 UTC (9 hours ago):

TAF LSMA 171625Z 1717/1823 06009KT CAVOK BECMG 1817/1820 SCT040 PROB30 TEMPO 1812/1816 05015G25KT